Latest Weather Observations for Bellambi

IDN60901

Issued at 8:41 pm EST Thursday 24 August 2017 (issued every 10 minutes, with the page automatically refreshed every 10 minutes)

About weather observations | Map of Sydney area stations | Latest observations for Sydney area | Other Formats
Station Details ID: 068228 Name: BELLAMBI AWS Lat: -34.37 Lon: 150.93 Height: 10.0 m
Data from the previous 72 hours. | See also: Recent months at Bellambi
Date/Time
EST
Temp
°C
App
Temp
°C
Dew
Point
°C
Rel
Hum
%
Delta-T
°C
Wind Press
QNH
hPa
Press
MSL
hPa
Rain since
9am
mm
Dir  Spd
km/h
Gust
km/h
Spd
kts
Gust
kts
24/08:30pm 12.7 6.3 5.4 61 3.4 SW 28 39 15 21 - - 0.0
24/08:00pm 12.5 7.7 5.4 62 3.3 SW 20 28 11 15 - - 0.0
24/07:30pm 12.4 7.5 4.9 60 3.4 SW 20 26 11 14 - - 0.0
24/07:00pm 12.7 7.7 4.7 58 3.7 SW 20 28 11 15 - - 0.0
24/06:30pm 13.0 8.2 4.7 57 3.8 SW 19 26 10 14 - - 0.0
24/06:00pm 13.3 8.3 4.7 56 4.0 SW 20 32 11 17 - - 0.0
24/05:30pm 14.0 6.2 6.6 61 3.6 SSW 37 46 20 25 - - 0.0
24/05:00pm 14.1 5.0 5.7 57 4.0 SSW 43 50 23 27 - - 0.0
24/04:30pm 14.2 5.1 5.8 57 4.0 S 43 52 23 28 - - 0.0
24/04:00pm 14.2 5.1 7.0 62 3.5 S 44 52 24 28 - - 0.0
24/03:30pm 14.1 5.2 6.9 62 3.5 S 43 52 23 28 - - 0.0
24/03:00pm 14.1 5.7 7.2 63 3.4 S 41 50 22 27 - - 0.0
24/02:30pm 14.1 5.2 6.7 61 3.6 S 43 52 23 28 - - 0.0
24/02:00pm 14.4 6.6 8.1 66 3.1 S 39 48 21 26 - - 0.0
24/01:30pm 14.4 6.2 6.7 60 3.7 S 39 48 21 26 - - 0.0
24/01:00pm 14.5 6.3 8.0 65 3.2 S 41 50 22 27 - - 0.0
24/12:30pm 14.3 5.5 7.4 63 3.4 S 43 50 23 27 - - 0.0
24/12:00pm 14.2 6.5 7.0 62 3.5 SSW 37 44 20 24 - - 0.0
24/11:30am 15.1 9.1 6.9 58 4.0 SSW 28 35 15 19 - - 0.0
24/11:00am 15.1 9.0 6.7 57 4.1 SW 28 39 15 21 - - 0.0
24/10:30am 15.0 8.1 7.3 60 3.8 SSW 33 46 18 25 - - 0.0
24/10:00am 15.2 7.3 8.0 62 3.6 SSW 39 46 21 25 - - 0.0
24/09:30am 15.7 9.6 6.4 54 4.5 SSW 28 44 15 24 - - 0.0
24/09:00am 15.4 9.8 1.2 38 6.2 SW 20 30 11 16 - - 0.0
24/08:30am 14.8 8.9 1.7 41 5.7 SW 22 32 12 17 - - 0.0
24/08:00am 14.1 8.7 1.1 41 5.6 SW 19 24 10 13 - - 0.0
24/07:30am 13.3 7.7 1.0 43 5.2 SW 20 28 11 15 - - 0.0
24/07:00am 11.9 7.2 1.0 47 4.6 WSW 15 19 8 10 - - 0.0
24/06:30am 11.4 7.1 0.8 48 4.4 WSW 13 19 7 10 - - 0.0
24/06:00am 11.8 7.5 1.2 48 4.5 WSW 13 17 7 9 - - 0.0
24/05:30am 11.9 7.3 1.5 49 4.4 WSW 15 22 8 12 - - 0.0
24/05:00am 11.7 7.2 2.2 52 4.1 W 15 22 8 12 - - 0.0
24/04:30am 11.8 7.7 2.0 51 4.2 W 13 17 7 9 - - 0.0
24/04:00am 12.1 7.9 1.7 49 4.4 W 13 17 7 9 - - 0.0
24/03:30am 13.1 8.1 1.5 45 5.0 WSW 17 22 9 12 - - 0.0
24/03:00am 13.2 7.9 1.8 46 4.9 SW 19 26 10 14 - - 0.0
24/02:30am 13.3 8.4 2.2 47 4.8 WSW 17 24 9 13 - - 0.0
24/02:00am 13.4 8.6 2.6 48 4.8 WSW 17 22 9 12 - - 0.0
24/01:30am 13.0 9.4 2.8 50 4.5 W 11 17 6 9 - - 0.0
24/01:00am 13.1 9.5 2.9 50 4.5 SW 11 15 6 8 - - 0.0
24/12:30am 13.4 10.3 3.8 52 4.3 SW 9 11 5 6 - - 0.0
24/12:00am 14.3 10.0 3.5 48 4.9 WSW 15 19 8 10 - - 0.0
 
Date/Time
EST
Temp
°C
App
Temp
°C
Dew
Point
°C
Rel
Hum
%
Delta-T
°C
Wind Press
QNH
hPa
Press
MSL
hPa
Rain since
9am
mm
Dir  Spd
km/h
Gust
km/h
Spd
kts
Gust
kts
23/11:30pm 14.7 9.5 3.5 47 5.1 SW 20 26 11 14 - - 0.0
23/11:00pm 14.0 9.5 4.3 52 4.5 SW 17 22 9 12 - - 0.0
23/10:30pm 14.1 10.0 4.4 52 4.5 WSW 15 17 8 9 - - 0.0
23/10:00pm 13.1 9.3 6.0 62 3.4 WSW 15 17 8 9 - - 0.0
23/09:30pm 12.7 9.7 9.2 79 1.8 SW 15 17 8 9 - - 0.0
23/09:00pm 13.2 12.1 10.0 81 1.6 SW 6 9 3 5 - - 0.0
23/08:30pm 13.5 12.5 10.3 81 1.7 W 6 7 3 4 - - 0.0
23/08:00pm 13.6 11.7 10.4 81 1.7 SW 11 13 6 7 - - 0.0
23/07:30pm 13.9 12.2 11.1 83 1.5 SW 11 13 6 7 - - 0.0
23/07:00pm 14.5 13.3 11.5 82 1.6 SW 9 11 5 6 - - 0.0
23/06:30pm 15.0 14.3 11.4 79 1.9 WSW 6 11 3 6 - - 0.0
23/06:00pm 16.4 15.7 13.1 81 1.8 NNE 9 13 5 7 - - 0.0
23/05:30pm 16.8 15.1 13.5 81 1.9 NNE 15 19 8 10 - - 0.0
23/05:00pm 16.9 14.7 13.2 79 2.1 NE 17 22 9 12 - - 0.0
23/04:30pm 17.4 14.6 13.1 76 2.4 NE 20 28 11 15 - - 0.0
23/04:00pm 17.7 14.2 13.4 76 2.4 NE 24 32 13 17 - - 0.0
23/03:30pm 18.2 15.1 13.3 73 2.8 NNE 22 32 12 17 - - 0.0
23/03:00pm 18.1 13.7 13.0 72 2.9 NNE 28 35 15 19 - - 0.0
23/02:30pm 18.3 14.3 13.0 71 3.0 NNE 26 32 14 17 - - 0.0
23/02:00pm 17.9 13.0 12.6 71 3.0 NE 30 35 16 19 - - 0.0
23/01:30pm 18.2 12.9 12.6 70 3.1 NE 32 35 17 19 - - 0.0
23/01:00pm 18.9 15.0 12.2 65 3.7 NE 24 30 13 16 - - 0.0
23/12:30pm 19.6 16.5 12.1 62 4.2 ENE 20 22 11 12 - - 0.0
23/12:00pm 19.0 15.9 10.3 57 4.7 NE 17 20 9 11 - - 0.0
23/11:30am 19.3 16.4 11.1 59 4.5 NE 17 20 9 11 - - 0.0
23/11:00am 18.8 16.3 9.8 56 4.8 NE 13 15 7 8 - - 0.0
23/10:30am 19.1 17.2 10.6 58 4.6 NE 11 15 6 8 - - 0.0
23/10:00am 17.7 16.0 8.3 54 4.8 NE 7 9 4 5 - - 0.0
23/09:30am 16.9 14.2 8.8 59 4.2 N 13 19 7 10 - - 0.0
23/09:00am 16.3 13.8 8.0 58 4.2 N 11 20 6 11 - - 0.0
23/08:30am 15.9 13.8 6.6 54 4.5 NW 7 13 4 7 - - 0.0
23/08:00am 15.3 14.9 8.3 63 3.5 CALM 0 0 0 0 - - 0.0
23/07:30am 13.5 11.4 6.6 63 3.3 WNW 7 9 4 5 - - 0.0
23/07:00am 12.9 10.9 6.3 64 3.1 WNW 6 9 3 5 - - 0.0
23/06:30am 12.4 10.4 6.2 66 2.9 WNW 6 9 3 5 - - 0.0
23/06:00am 12.1 9.8 5.9 66 2.9 W 7 9 4 5 - - 0.0
23/05:30am 12.0 9.7 5.9 66 2.9 W 7 9 4 5 - - 0.0
23/05:00am 12.0 10.7 5.9 66 2.9 W 2 7 1 4 - - 0.0
23/04:30am 12.3 9.7 5.9 65 3.0 WNW 9 13 5 7 - - 0.0
23/04:00am 13.1 11.2 6.5 64 3.2 NNW 6 9 3 5 - - 0.0
23/03:30am 12.9 11.4 6.9 67 2.9 NNW 4 11 2 6 - - 0.0
23/03:00am 12.2 11.2 5.8 65 3.0 CALM 0 6 0 3 - - 0.0
23/02:30am 12.1 10.7 5.3 63 3.1 N 2 9 1 5 - - 0.0
23/02:00am 13.1 11.0 6.0 62 3.4 NW 6 11 3 6 - - 0.0
23/01:30am 13.1 11.5 6.5 64 3.2 NNW 4 9 2 5 - - 0.0
23/01:00am 12.2 9.5 5.6 64 3.1 WSW 9 13 5 7 - - 0.0
23/12:30am 12.8 10.8 6.2 64 3.1 NW 6 9 3 5 - - 0.0
23/12:00am 11.6 8.1 5.5 66 2.8 WNW 13 17 7 9 - - 0.0
 
Date/Time
EST
Temp
°C
App
Temp
°C
Dew
Point
°C
Rel
Hum
%
Delta-T
°C
Wind Press
QNH
hPa
Press
MSL
hPa
Rain since
9am
mm
Dir  Spd
km/h
Gust
km/h
Spd
kts
Gust
kts
22/11:30pm 11.7 7.9 5.6 66 2.8 NW 15 22 8 12 - - 0.0
22/11:00pm 12.1 8.4 6.2 67 2.8 NW 15 19 8 10 - - 0.0
22/10:30pm 12.4 9.6 7.1 70 2.6 NNW 11 13 6 7 - - 0.0
22/10:00pm 11.8 8.9 6.5 70 2.5 NW 11 15 6 8 - - 0.0
22/09:30pm 11.7 8.4 6.4 70 2.5 WNW 13 17 7 9 - - 0.0
22/09:00pm 11.9 9.0 6.4 69 2.6 WNW 11 15 6 8 - - 0.0
22/08:30pm 12.0 9.4 6.3 68 2.7 NW 9 9 5 5 - - 0.0
22/08:00pm 12.1 9.5 5.9 66 2.9 NW 9 11 5 6 - - 0.0
22/07:30pm 12.3 9.7 5.9 65 3.0 NW 9 9 5 5 - - 0.0
22/07:00pm 12.5 10.2 5.7 63 3.2 NW 7 9 4 5 - - 0.0
22/06:30pm 13.3 10.9 5.2 58 3.8 NW 7 7 4 4 - - 0.0
22/06:00pm 14.8 12.3 6.6 58 4.0 ENE 9 13 5 7 - - 0.0
22/05:30pm 14.9 12.0 4.9 51 4.7 ENE 9 11 5 6 - - 0.0
22/05:00pm 15.5 12.8 5.4 51 4.8 E 9 11 5 6 - - 0.0
22/04:30pm 15.7 13.1 5.9 52 4.7 ESE 9 13 5 7 - - 0.0
22/04:00pm 16.1 13.2 4.5 46 5.4 ESE 9 11 5 6 - - 0.0
22/03:30pm 16.4 13.5 4.4 45 5.6 ESE 9 11 5 6 - - 0.0
22/03:00pm 16.6 13.8 5.3 47 5.4 SE 9 11 5 6 - - 0.0
22/02:30pm 16.6 13.4 4.9 46 5.6 SE 11 15 6 8 - - 0.0
22/02:00pm 16.7 13.7 6.2 50 5.1 SE 11 15 6 8 - - 0.0
22/01:30pm 16.8 13.5 4.8 45 5.7 SE 11 15 6 8 - - 0.0
22/01:00pm 16.5 13.2 4.5 45 5.6 SE 11 15 6 8 - - 0.0
22/12:30pm 16.8 13.6 5.1 46 5.6 ESE 11 13 6 7 - - 0.0
22/12:00pm 16.6 12.5 6.4 51 5.0 SE 17 19 9 10 - - 0.0
22/11:30am 16.2 12.1 4.6 46 5.5 SE 15 17 8 9 - - 0.0
22/11:00am 16.1 12.5 2.9 41 6.0 SE 11 15 6 8 - - 0.0
22/10:30am 15.9 12.6 2.3 40 6.1 SSE 9 11 5 6 - - 0.0
22/10:00am 16.0 12.8 3.1 42 5.9 S 9 13 5 7 - - 0.0
22/09:30am 15.2 11.5 2.4 42 5.7 S 11 13 6 7 - - 0.0
22/09:00am 14.8 10.8 3.0 45 5.3 SSW 13 17 7 9 - - 0.0
22/08:30am 14.1 10.3 2.0 44 5.3 WSW 11 17 6 9 - - 0.0
22/08:00am 12.6 9.3 4.6 58 3.7 WSW 11 13 6 7 - - 0.0
22/07:30am 10.3 6.5 3.8 64 2.9 W 13 15 7 8 - - 0.0
22/07:00am 8.7 5.5 3.1 68 2.4 WSW 9 15 5 8 - - 0.0
22/06:30am 9.0 6.4 3.2 67 2.5 SE 6 7 3 4 - - 0.0
22/06:00am 9.2 6.5 3.8 69 2.4 NW 7 9 4 5 - - 0.0
22/05:30am 9.8 6.6 3.1 63 2.9 WNW 9 13 5 7 - - 0.0
22/05:00am 9.2 6.1 3.6 68 2.4 NW 9 13 5 7 - - 0.0
22/04:30am 9.1 5.3 3.7 69 2.3 W 13 15 7 8 - - 0.0
22/04:00am 8.9 5.4 3.3 68 2.4 WSW 11 13 6 7 - - 0.0
22/03:30am 9.7 6.1 3.2 64 2.8 WSW 11 11 6 6 - - 0.0
22/03:00am 10.2 6.7 3.5 63 2.9 WSW 11 13 6 7 - - 0.0
22/02:30am 10.3 6.4 3.6 63 2.9 WSW 13 15 7 8 - - 0.0
22/02:00am 10.3 6.5 3.8 64 2.9 W 13 13 7 7 - - 0.0
22/01:30am 10.6 8.8 3.6 62 3.1 WNW 2 7 1 4 - - 0.0
22/01:00am 11.0 8.6 4.2 63 3.0 NW 6 9 3 5 - - 0.0
22/12:30am 11.4 9.5 4.8 64 3.0 NNW 4 9 2 5 - - 0.0
22/12:00am 11.7 9.3 4.2 60 3.4 NW 6 9 3 5 - - 0.0
 
Date/Time
EST
Temp
°C
App
Temp
°C
Dew
Point
°C
Rel
Hum
%
Delta-T
°C
Wind Press
QNH
hPa
Press
MSL
hPa
Rain since
9am
mm
Dir  Spd
km/h
Gust
km/h
Spd
kts
Gust
kts
21/11:30pm 11.6 10.3 4.3 61 3.3 CALM 0 6 0 3 - - 0.0
21/11:00pm 11.4 8.1 4.6 63 3.1 W 11 15 6 8 - - 0.0
21/10:30pm 11.3 8.6 5.8 69 2.6 WNW 9 11 5 6 - - 0.0
21/10:00pm 11.6 9.0 5.9 68 2.7 W 9 11 5 6 - - 0.0
21/09:30pm 12.1 9.3 5.3 63 3.1 W 9 13 5 7 - - 0.0
21/09:00pm 12.7 9.6 5.4 61 3.4 NW 11 17 6 9 - - 0.0

Latest Capital City Observations: Canberra | Sydney | Melbourne | Brisbane | Adelaide | Perth | Hobart | Darwin

Other Formats:

Comma delimited format used in spreadsheet applications
http://www.bom.gov.au/fwo/IDN60901/IDN60901.94749.axf

JavaScript Object Notation format (JSON) in row-major order
http://www.bom.gov.au/fwo/IDN60901/IDN60901.94749.json